sensor_id;sensor_type;location;lat;lon;timestamp;P1;durP1;ratioP1;P2;durP2;ratioP2
55706;SDS011;41608;45.384;20.394;2023-02-01T00:01:29;19.25;;;12.15;;
55706;SDS011;41608;45.384;20.394;2023-02-01T00:03:56;21.02;;;12.05;;
55706;SDS011;41608;45.384;20.394;2023-02-01T00:06:22;20.15;;;12.30;;
55706;SDS011;41608;45.384;20.394;2023-02-01T00:08:48;22.27;;;11.90;;
55706;SDS011;41608;45.384;20.394;2023-02-01T00:11:14;22.52;;;12.13;;
55706;SDS011;41608;45.384;20.394;2023-02-01T00:13:41;24.55;;;12.88;;
55706;SDS011;41608;45.384;20.394;2023-02-01T00:18:41;23.67;;;13.35;;
55706;SDS011;41608;45.384;20.394;2023-02-01T00:21:07;17.60;;;10.77;;
55706;SDS011;41608;45.384;20.394;2023-02-01T00:23:34;20.77;;;10.85;;
55706;SDS011;41608;45.384;20.394;2023-02-01T00:26:00;20.08;;;12.13;;
55706;SDS011;41608;45.384;20.394;2023-02-01T00:28:27;22.58;;;10.70;;
55706;SDS011;41608;45.384;20.394;2023-02-01T00:30:59;20.13;;;11.55;;
55706;SDS011;41608;45.384;20.394;2023-02-01T00:33:26;16.13;;;9.73;;
55706;SDS011;41608;45.384;20.394;2023-02-01T00:35:55;19.75;;;10.43;;
55706;SDS011;41608;45.384;20.394;2023-02-01T00:38:21;14.73;;;10.10;;
55706;SDS011;41608;45.384;20.394;2023-02-01T00:40:47;16.92;;;10.82;;
55706;SDS011;41608;45.384;20.394;2023-02-01T00:43:16;16.13;;;9.93;;
55706;SDS011;41608;45.384;20.394;2023-02-01T00:45:42;17.73;;;10.27;;
55706;SDS011;41608;45.384;20.394;2023-02-01T00:48:08;15.07;;;9.70;;
55706;SDS011;41608;45.384;20.394;2023-02-01T00:50:34;18.17;;;10.48;;
55706;SDS011;41608;45.384;20.394;2023-02-01T00:53:00;16.17;;;8.60;;
55706;SDS011;41608;45.384;20.394;2023-02-01T00:55:26;20.48;;;9.68;;
55706;SDS011;41608;45.384;20.394;2023-02-01T00:57:52;17.98;;;10.18;;
55706;SDS011;41608;45.384;20.394;2023-02-01T01:00:18;20.33;;;12.68;;
55706;SDS011;41608;45.384;20.394;2023-02-01T01:02:44;17.17;;;12.00;;
55706;SDS011;41608;45.384;20.394;2023-02-01T01:05:10;20.35;;;12.80;;
55706;SDS011;41608;45.384;20.394;2023-02-01T01:07:36;15.43;;;9.13;;
55706;SDS011;41608;45.384;20.394;2023-02-01T01:10:02;17.10;;;10.43;;
55706;SDS011;41608;45.384;20.394;2023-02-01T01:12:28;19.85;;;11.70;;
55706;SDS011;41608;45.384;20.394;2023-02-01T01:14:54;19.52;;;10.68;;
55706;SDS011;41608;45.384;20.394;2023-02-01T01:17:20;17.15;;;11.43;;
55706;SDS011;41608;45.384;20.394;2023-02-01T01:19:46;14.07;;;9.23;;
55706;SDS011;41608;45.384;20.394;2023-02-01T01:22:12;21.65;;;11.82;;
55706;SDS011;41608;45.384;20.394;2023-02-01T01:24:38;15.70;;;11.63;;
55706;SDS011;41608;45.384;20.394;2023-02-01T01:27:07;18.70;;;10.35;;
55706;SDS011;41608;45.384;20.394;2023-02-01T01:29:33;19.70;;;10.07;;
55706;SDS011;41608;45.384;20.394;2023-02-01T01:31:59;15.70;;;9.98;;
55706;SDS011;41608;45.384;20.394;2023-02-01T01:34:25;17.52;;;10.70;;
55706;SDS011;41608;45.384;20.394;2023-02-01T01:36:51;13.93;;;8.57;;
55706;SDS011;41608;45.384;20.394;2023-02-01T01:39:17;17.80;;;11.30;;
55706;SDS011;41608;45.384;20.394;2023-02-01T01:41:43;15.02;;;10.38;;
55706;SDS011;41608;45.384;20.394;2023-02-01T01:46:54;15.82;;;9.80;;
55706;SDS011;41608;45.384;20.394;2023-02-01T01:49:22;14.88;;;10.38;;
55706;SDS011;41608;45.384;20.394;2023-02-01T01:51:51;19.25;;;10.07;;
55706;SDS011;41608;45.384;20.394;2023-02-01T01:54:21;13.35;;;8.73;;
55706;SDS011;41608;45.384;20.394;2023-02-01T01:56:51;16.58;;;11.25;;
55706;SDS011;41608;45.384;20.394;2023-02-01T01:59:22;15.07;;;9.40;;
55706;SDS011;41608;45.384;20.394;2023-02-01T02:01:49;14.63;;;9.90;;
55706;SDS011;41608;45.384;20.394;2023-02-01T02:04:15;13.38;;;7.63;;
55706;SDS011;41608;45.384;20.394;2023-02-01T02:06:43;17.80;;;8.80;;
55706;SDS011;41608;45.384;20.394;2023-02-01T02:09:13;18.45;;;11.60;;
55706;SDS011;41608;45.384;20.394;2023-02-01T02:11:39;13.18;;;9.20;;
55706;SDS011;41608;45.384;20.394;2023-02-01T02:14:05;17.33;;;8.88;;
55706;SDS011;41608;45.384;20.394;2023-02-01T02:27:03;19.73;;;9.25;;
55706;SDS011;41608;45.384;20.394;2023-02-01T02:38:03;11.48;;;8.50;;
55706;SDS011;41608;45.384;20.394;2023-02-01T02:40:32;14.40;;;7.80;;
55706;SDS011;41608;45.384;20.394;2023-02-01T02:43:22;12.85;;;8.50;;
55706;SDS011;41608;45.384;20.394;2023-02-01T02:51:20;19.20;;;10.55;;
55706;SDS011;41608;45.384;20.394;2023-02-01T02:56:50;14.63;;;8.82;;
55706;SDS011;41608;45.384;20.394;2023-02-01T02:59:36;19.52;;;8.55;;
55706;SDS011;41608;45.384;20.394;2023-02-01T03:02:22;16.40;;;7.55;;
55706;SDS011;41608;45.384;20.394;2023-02-01T03:05:07;14.68;;;8.77;;
55706;SDS011;41608;45.384;20.394;2023-02-01T03:07:49;14.77;;;9.90;;
55706;SDS011;41608;45.384;20.394;2023-02-01T03:10:21;13.27;;;8.85;;
55706;SDS011;41608;45.384;20.394;2023-02-01T03:12:48;18.60;;;11.52;;
55706;SDS011;41608;45.384;20.394;2023-02-01T03:15:56;10.70;;;7.78;;
55706;SDS011;41608;45.384;20.394;2023-02-01T03:18:16;14.45;;;6.85;;
55706;SDS011;41608;45.384;20.394;2023-02-01T03:20:44;11.85;;;7.57;;
55706;SDS011;41608;45.384;20.394;2023-02-01T03:23:11;16.88;;;8.85;;
55706;SDS011;41608;45.384;20.394;2023-02-01T03:25:39;10.45;;;6.15;;
55706;SDS011;41608;45.384;20.394;2023-02-01T03:28:09;17.77;;;8.00;;
55706;SDS011;41608;45.384;20.394;2023-02-01T03:30:37;18.38;;;10.50;;
55706;SDS011;41608;45.384;20.394;2023-02-01T03:33:05;11.32;;;6.45;;
55706;SDS011;41608;45.384;20.394;2023-02-01T03:40:36;10.43;;;6.90;;
55706;SDS011;41608;45.384;20.394;2023-02-01T03:43:04;16.48;;;8.60;;
55706;SDS011;41608;45.384;20.394;2023-02-01T03:45:35;13.27;;;10.18;;
55706;SDS011;41608;45.384;20.394;2023-02-01T03:48:05;16.02;;;7.50;;
55706;SDS011;41608;45.384;20.394;2023-02-01T03:50:32;14.95;;;6.68;;
55706;SDS011;41608;45.384;20.394;2023-02-01T03:53:11;14.88;;;8.07;;
55706;SDS011;41608;45.384;20.394;2023-02-01T03:55:39;15.40;;;6.45;;
55706;SDS011;41608;45.384;20.394;2023-02-01T03:58:08;16.20;;;6.60;;
55706;SDS011;41608;45.384;20.394;2023-02-01T04:00:38;12.65;;;5.32;;
55706;SDS011;41608;45.384;20.394;2023-02-01T04:03:04;8.10;;;3.97;;
55706;SDS011;41608;45.384;20.394;2023-02-01T04:05:30;5.57;;;4.70;;
55706;SDS011;41608;45.384;20.394;2023-02-01T04:07:59;11.52;;;5.07;;
55706;SDS011;41608;45.384;20.394;2023-02-01T04:10:26;9.75;;;5.65;;
55706;SDS011;41608;45.384;20.394;2023-02-01T04:12:52;11.93;;;6.45;;
55706;SDS011;41608;45.384;20.394;2023-02-01T04:15:18;18.17;;;7.45;;
55706;SDS011;41608;45.384;20.394;2023-02-01T04:17:45;11.18;;;5.72;;
55706;SDS011;41608;45.384;20.394;2023-02-01T04:20:11;11.23;;;6.13;;
55706;SDS011;41608;45.384;20.394;2023-02-01T04:22:37;14.30;;;5.07;;
55706;SDS011;41608;45.384;20.394;2023-02-01T04:25:03;13.65;;;5.80;;
55706;SDS011;41608;45.384;20.394;2023-02-01T04:27:30;13.35;;;7.53;;
55706;SDS011;41608;45.384;20.394;2023-02-01T04:29:56;8.30;;;5.90;;
55706;SDS011;41608;45.384;20.394;2023-02-01T04:32:23;13.43;;;5.90;;
55706;SDS011;41608;45.384;20.394;2023-02-01T04:34:49;11.88;;;5.85;;
55706;SDS011;41608;45.384;20.394;2023-02-01T04:37:15;10.75;;;6.00;;
55706;SDS011;41608;45.384;20.394;2023-02-01T04:39:41;9.70;;;5.32;;
55706;SDS011;41608;45.384;20.394;2023-02-01T04:42:07;8.63;;;5.82;;
55706;SDS011;41608;45.384;20.394;2023-02-01T04:44:33;12.52;;;5.07;;
55706;SDS011;41608;45.384;20.394;2023-02-01T04:47:01;10.00;;;5.32;;
55706;SDS011;41608;45.384;20.394;2023-02-01T04:49:28;7.60;;;4.63;;
55706;SDS011;41608;45.384;20.394;2023-02-01T04:51:54;10.05;;;4.70;;
55706;SDS011;41608;45.384;20.394;2023-02-01T04:54:20;6.90;;;4.63;;
55706;SDS011;41608;45.384;20.394;2023-02-01T04:56:46;10.95;;;5.30;;
55706;SDS011;41608;45.384;20.394;2023-02-01T04:59:12;7.68;;;4.45;;
55706;SDS011;41608;45.384;20.394;2023-02-01T05:01:38;10.35;;;5.85;;
55706;SDS011;41608;45.384;20.394;2023-02-01T05:04:04;8.30;;;4.65;;
55706;SDS011;41608;45.384;20.394;2023-02-01T05:06:30;8.75;;;5.25;;
55706;SDS011;41608;45.384;20.394;2023-02-01T05:08:56;6.68;;;5.38;;
55706;SDS011;41608;45.384;20.394;2023-02-01T05:11:22;8.70;;;5.47;;
55706;SDS011;41608;45.384;20.394;2023-02-01T05:14:07;8.30;;;5.50;;
55706;SDS011;41608;45.384;20.394;2023-02-01T05:16:33;11.23;;;5.20;;
55706;SDS011;41608;45.384;20.394;2023-02-01T05:18:59;9.95;;;5.30;;
55706;SDS011;41608;45.384;20.394;2023-02-01T05:21:25;12.63;;;6.47;;
55706;SDS011;41608;45.384;20.394;2023-02-01T05:23:51;11.50;;;6.30;;
55706;SDS011;41608;45.384;20.394;2023-02-01T05:26:36;13.00;;;6.15;;
55706;SDS011;41608;45.384;20.394;2023-02-01T05:29:02;11.98;;;7.07;;
55706;SDS011;41608;45.384;20.394;2023-02-01T05:31:28;8.90;;;6.57;;
55706;SDS011;41608;45.384;20.394;2023-02-01T05:33:54;13.70;;;7.40;;
55706;SDS011;41608;45.384;20.394;2023-02-01T05:36:20;13.70;;;7.90;;
55706;SDS011;41608;45.384;20.394;2023-02-01T05:38:46;17.38;;;8.85;;
55706;SDS011;41608;45.384;20.394;2023-02-01T05:41:13;18.00;;;11.07;;
55706;SDS011;41608;45.384;20.394;2023-02-01T05:43:39;12.27;;;7.85;;
55706;SDS011;41608;45.384;20.394;2023-02-01T05:46:07;17.67;;;9.85;;
55706;SDS011;41608;45.384;20.394;2023-02-01T05:48:35;15.95;;;9.90;;
55706;SDS011;41608;45.384;20.394;2023-02-01T05:51:01;19.48;;;10.02;;
55706;SDS011;41608;45.384;20.394;2023-02-01T05:53:27;25.80;;;12.77;;
55706;SDS011;41608;45.384;20.394;2023-02-01T05:55:53;16.58;;;8.93;;
55706;SDS011;41608;45.384;20.394;2023-02-01T05:58:20;12.82;;;9.18;;
55706;SDS011;41608;45.384;20.394;2023-02-01T06:00:46;15.10;;;10.27;;
55706;SDS011;41608;45.384;20.394;2023-02-01T06:03:12;14.02;;;8.52;;
55706;SDS011;41608;45.384;20.394;2023-02-01T06:05:38;9.95;;;8.00;;
55706;SDS011;41608;45.384;20.394;2023-02-01T06:08:04;15.13;;;8.98;;
55706;SDS011;41608;45.384;20.394;2023-02-01T06:10:32;13.48;;;8.30;;
55706;SDS011;41608;45.384;20.394;2023-02-01T06:12:59;17.30;;;9.32;;
55706;SDS011;41608;45.384;20.394;2023-02-01T06:15:25;13.30;;;8.32;;
55706;SDS011;41608;45.384;20.394;2023-02-01T06:17:51;18.20;;;12.70;;
55706;SDS011;41608;45.384;20.394;2023-02-01T06:20:17;15.32;;;9.82;;
55706;SDS011;41608;45.384;20.394;2023-02-01T06:22:43;17.02;;;8.82;;
55706;SDS011;41608;45.384;20.394;2023-02-01T06:25:10;21.20;;;11.23;;
55706;SDS011;41608;45.384;20.394;2023-02-01T06:27:36;21.35;;;11.38;;
55706;SDS011;41608;45.384;20.394;2023-02-01T06:30:03;22.65;;;12.70;;
55706;SDS011;41608;45.384;20.394;2023-02-01T06:32:29;22.05;;;12.25;;
55706;SDS011;41608;45.384;20.394;2023-02-01T06:34:55;15.35;;;10.90;;
55706;SDS011;41608;45.384;20.394;2023-02-01T06:37:22;17.92;;;11.48;;
55706;SDS011;41608;45.384;20.394;2023-02-01T06:39:49;16.88;;;11.27;;
55706;SDS011;41608;45.384;20.394;2023-02-01T06:42:15;18.15;;;11.40;;
55706;SDS011;41608;45.384;20.394;2023-02-01T06:44:42;18.83;;;10.35;;
55706;SDS011;41608;45.384;20.394;2023-02-01T06:47:08;15.65;;;10.85;;
55706;SDS011;41608;45.384;20.394;2023-02-01T06:49:34;17.25;;;11.25;;
55706;SDS011;41608;45.384;20.394;2023-02-01T06:52:00;16.45;;;9.70;;
55706;SDS011;41608;45.384;20.394;2023-02-01T06:54:26;16.25;;;11.20;;
55706;SDS011;41608;45.384;20.394;2023-02-01T06:56:53;16.75;;;10.48;;
55706;SDS011;41608;45.384;20.394;2023-02-01T06:59:19;17.65;;;9.43;;
55706;SDS011;41608;45.384;20.394;2023-02-01T07:01:45;15.35;;;11.35;;
55706;SDS011;41608;45.384;20.394;2023-02-01T07:04:11;18.02;;;11.32;;
55706;SDS011;41608;45.384;20.394;2023-02-01T07:06:38;17.95;;;10.48;;
55706;SDS011;41608;45.384;20.394;2023-02-01T07:09:04;17.05;;;11.80;;
55706;SDS011;41608;45.384;20.394;2023-02-01T07:11:30;18.52;;;11.50;;
55706;SDS011;41608;45.384;20.394;2023-02-01T07:13:57;14.45;;;10.27;;
55706;SDS011;41608;45.384;20.394;2023-02-01T07:16:23;19.15;;;10.52;;
55706;SDS011;41608;45.384;20.394;2023-02-01T07:18:50;18.35;;;12.50;;
55706;SDS011;41608;45.384;20.394;2023-02-01T07:21:16;17.95;;;12.60;;
55706;SDS011;41608;45.384;20.394;2023-02-01T07:23:42;19.88;;;12.55;;
55706;SDS011;41608;45.384;20.394;2023-02-01T07:26:09;119.75;;;47.65;;
55706;SDS011;41608;45.384;20.394;2023-02-01T07:28:37;99.88;;;52.65;;
55706;SDS011;41608;45.384;20.394;2023-02-01T07:31:16;32.45;;;17.63;;
55706;SDS011;41608;45.384;20.394;2023-02-01T07:36:16;25.80;;;14.70;;
55706;SDS011;41608;45.384;20.394;2023-02-01T07:38:43;23.35;;;14.70;;
55706;SDS011;41608;45.384;20.394;2023-02-01T07:41:10;24.58;;;13.23;;
55706;SDS011;41608;45.384;20.394;2023-02-01T07:43:36;19.58;;;12.38;;
55706;SDS011;41608;45.384;20.394;2023-02-01T07:46:03;25.90;;;14.75;;
55706;SDS011;41608;45.384;20.394;2023-02-01T07:48:29;18.83;;;12.98;;
55706;SDS011;41608;45.384;20.394;2023-02-01T07:53:25;25.42;;;14.95;;
55706;SDS011;41608;45.384;20.394;2023-02-01T07:55:51;20.60;;;12.07;;
55706;SDS011;41608;45.384;20.394;2023-02-01T07:58:17;17.73;;;11.25;;
55706;SDS011;41608;45.384;20.394;2023-02-01T08:00:43;14.50;;;11.65;;
55706;SDS011;41608;45.384;20.394;2023-02-01T08:03:28;16.90;;;10.45;;
55706;SDS011;41608;45.384;20.394;2023-02-01T08:05:54;19.27;;;11.95;;
55706;SDS011;41608;45.384;20.394;2023-02-01T08:08:21;19.75;;;11.93;;
55706;SDS011;41608;45.384;20.394;2023-02-01T08:10:47;19.02;;;11.70;;
55706;SDS011;41608;45.384;20.394;2023-02-01T08:13:13;19.40;;;12.07;;
55706;SDS011;41608;45.384;20.394;2023-02-01T08:15:39;17.15;;;10.98;;
55706;SDS011;41608;45.384;20.394;2023-02-01T08:18:05;19.17;;;11.65;;
55706;SDS011;41608;45.384;20.394;2023-02-01T08:20:31;15.48;;;11.73;;
55706;SDS011;41608;45.384;20.394;2023-02-01T08:23:02;18.20;;;10.70;;
55706;SDS011;41608;45.384;20.394;2023-02-01T08:25:28;16.08;;;9.65;;
55706;SDS011;41608;45.384;20.394;2023-02-01T08:27:54;17.38;;;11.07;;
55706;SDS011;41608;45.384;20.394;2023-02-01T08:30:20;16.25;;;10.85;;
55706;SDS011;41608;45.384;20.394;2023-02-01T08:32:53;16.48;;;9.85;;
55706;SDS011;41608;45.384;20.394;2023-02-01T08:35:22;13.60;;;8.70;;
55706;SDS011;41608;45.384;20.394;2023-02-01T08:37:49;17.35;;;9.40;;
55706;SDS011;41608;45.384;20.394;2023-02-01T08:40:20;12.77;;;8.88;;
55706;SDS011;41608;45.384;20.394;2023-02-01T08:42:46;16.65;;;9.27;;
55706;SDS011;41608;45.384;20.394;2023-02-01T08:45:15;15.38;;;10.40;;
55706;SDS011;41608;45.384;20.394;2023-02-01T08:47:41;15.00;;;8.18;;
55706;SDS011;41608;45.384;20.394;2023-02-01T08:50:08;9.95;;;7.45;;
55706;SDS011;41608;45.384;20.394;2023-02-01T08:52:34;14.30;;;9.38;;
55706;SDS011;41608;45.384;20.394;2023-02-01T08:55:00;12.35;;;7.93;;
55706;SDS011;41608;45.384;20.394;2023-02-01T08:57:26;12.63;;;8.75;;
55706;SDS011;41608;45.384;20.394;2023-02-01T08:59:52;13.68;;;9.02;;
55706;SDS011;41608;45.384;20.394;2023-02-01T09:02:18;15.70;;;8.38;;
55706;SDS011;41608;45.384;20.394;2023-02-01T09:04:45;13.98;;;9.60;;
55706;SDS011;41608;45.384;20.394;2023-02-01T09:07:11;13.60;;;8.95;;
55706;SDS011;41608;45.384;20.394;2023-02-01T09:09:38;13.43;;;7.93;;
55706;SDS011;41608;45.384;20.394;2023-02-01T09:12:07;16.85;;;9.35;;
55706;SDS011;41608;45.384;20.394;2023-02-01T09:14:33;13.85;;;8.73;;
55706;SDS011;41608;45.384;20.394;2023-02-01T09:16:59;11.80;;;8.60;;
55706;SDS011;41608;45.384;20.394;2023-02-01T09:19:25;15.63;;;9.02;;
55706;SDS011;41608;45.384;20.394;2023-02-01T09:21:51;13.07;;;8.82;;
55706;SDS011;41608;45.384;20.394;2023-02-01T09:24:17;13.48;;;8.93;;
55706;SDS011;41608;45.384;20.394;2023-02-01T09:26:44;14.13;;;9.52;;
55706;SDS011;41608;45.384;20.394;2023-02-01T09:29:10;14.57;;;10.80;;
55706;SDS011;41608;45.384;20.394;2023-02-01T09:31:36;18.35;;;12.02;;
55706;SDS011;41608;45.384;20.394;2023-02-01T09:34:03;17.83;;;11.13;;
55706;SDS011;41608;45.384;20.394;2023-02-01T09:36:29;18.25;;;10.50;;
55706;SDS011;41608;45.384;20.394;2023-02-01T09:38:55;17.33;;;11.05;;
55706;SDS011;41608;45.384;20.394;2023-02-01T09:41:43;12.50;;;7.82;;
55706;SDS011;41608;45.384;20.394;2023-02-01T09:44:21;15.25;;;9.73;;
55706;SDS011;41608;45.384;20.394;2023-02-01T09:46:52;13.95;;;8.40;;
55706;SDS011;41608;45.384;20.394;2023-02-01T09:49:22;17.17;;;10.70;;
55706;SDS011;41608;45.384;20.394;2023-02-01T09:51:51;16.00;;;9.30;;
55706;SDS011;41608;45.384;20.394;2023-02-01T09:54:19;16.25;;;10.00;;
55706;SDS011;41608;45.384;20.394;2023-02-01T09:56:51;14.90;;;8.63;;
55706;SDS011;41608;45.384;20.394;2023-02-01T09:59:28;16.52;;;8.43;;
55706;SDS011;41608;45.384;20.394;2023-02-01T10:01:56;13.60;;;9.15;;
55706;SDS011;41608;45.384;20.394;2023-02-01T10:04:24;16.50;;;9.23;;
55706;SDS011;41608;45.384;20.394;2023-02-01T10:07:12;13.68;;;8.68;;
55706;SDS011;41608;45.384;20.394;2023-02-01T10:09:44;14.60;;;8.40;;
55706;SDS011;41608;45.384;20.394;2023-02-01T10:22:29;14.65;;;9.10;;
55706;SDS011;41608;45.384;20.394;2023-02-01T10:27:31;14.18;;;7.80;;
55706;SDS011;41608;45.384;20.394;2023-02-01T10:29:59;25.60;;;17.33;;
55706;SDS011;41608;45.384;20.394;2023-02-01T10:32:34;15.63;;;12.25;;
55706;SDS011;41608;45.384;20.394;2023-02-01T10:35:01;18.17;;;11.52;;
55706;SDS011;41608;45.384;20.394;2023-02-01T10:37:32;14.80;;;10.75;;
55706;SDS011;41608;45.384;20.394;2023-02-01T10:40:18;15.95;;;10.07;;
55706;SDS011;41608;45.384;20.394;2023-02-01T10:42:46;17.75;;;9.23;;
55706;SDS011;41608;45.384;20.394;2023-02-01T10:45:14;11.35;;;8.80;;
55706;SDS011;41608;45.384;20.394;2023-02-01T10:47:41;15.88;;;10.18;;
55706;SDS011;41608;45.384;20.394;2023-02-01T10:55:40;15.45;;;9.27;;
55706;SDS011;41608;45.384;20.394;2023-02-01T10:58:13;14.48;;;9.05;;
55706;SDS011;41608;45.384;20.394;2023-02-01T11:00:45;15.95;;;8.80;;
55706;SDS011;41608;45.384;20.394;2023-02-01T11:03:21;15.20;;;8.50;;
55706;SDS011;41608;45.384;20.394;2023-02-01T11:05:54;11.30;;;7.75;;
55706;SDS011;41608;45.384;20.394;2023-02-01T11:08:21;9.60;;;7.18;;
55706;SDS011;41608;45.384;20.394;2023-02-01T11:10:49;15.82;;;9.48;;
55706;SDS011;41608;45.384;20.394;2023-02-01T11:13:22;17.70;;;9.00;;
55706;SDS011;41608;45.384;20.394;2023-02-01T11:15:56;15.50;;;10.57;;
55706;SDS011;41608;45.384;20.394;2023-02-01T11:18:29;20.00;;;9.90;;
55706;SDS011;41608;45.384;20.394;2023-02-01T11:20:56;17.67;;;11.40;;
55706;SDS011;41608;45.384;20.394;2023-02-01T11:23:23;19.45;;;11.25;;
55706;SDS011;41608;45.384;20.394;2023-02-01T11:26:23;16.58;;;10.35;;
55706;SDS011;41608;45.384;20.394;2023-02-01T11:28:45;14.73;;;10.23;;
55706;SDS011;41608;45.384;20.394;2023-02-01T11:31:14;16.48;;;12.30;;
55706;SDS011;41608;45.384;20.394;2023-02-01T11:33:43;15.85;;;12.20;;
55706;SDS011;41608;45.384;20.394;2023-02-01T11:36:16;17.52;;;11.48;;
55706;SDS011;41608;45.384;20.394;2023-02-01T11:38:47;13.70;;;8.80;;
55706;SDS011;41608;45.384;20.394;2023-02-01T11:41:24;12.18;;;8.10;;
55706;SDS011;41608;45.384;20.394;2023-02-01T11:43:58;11.18;;;7.63;;
55706;SDS011;41608;45.384;20.394;2023-02-01T11:46:28;10.52;;;7.55;;
55706;SDS011;41608;45.384;20.394;2023-02-01T11:48:56;15.35;;;9.90;;
55706;SDS011;41608;45.384;20.394;2023-02-01T11:53:57;12.57;;;7.93;;
55706;SDS011;41608;45.384;20.394;2023-02-01T11:56:36;13.43;;;7.47;;
55706;SDS011;41608;45.384;20.394;2023-02-01T12:06:47;12.40;;;7.95;;
55706;SDS011;41608;45.384;20.394;2023-02-01T12:12:08;17.48;;;9.88;;
55706;SDS011;41608;45.384;20.394;2023-02-01T12:35:14;8.75;;;5.80;;
55706;SDS011;41608;45.384;20.394;2023-02-01T12:40:32;10.95;;;6.75;;
55706;SDS011;41608;45.384;20.394;2023-02-01T12:43:01;9.82;;;6.35;;
55706;SDS011;41608;45.384;20.394;2023-02-01T12:45:38;10.32;;;6.47;;
55706;SDS011;41608;45.384;20.394;2023-02-01T12:50:41;8.85;;;5.53;;
55706;SDS011;41608;45.384;20.394;2023-02-01T12:56:06;9.80;;;5.30;;
55706;SDS011;41608;45.384;20.394;2023-02-01T13:01:02;10.10;;;6.10;;
55706;SDS011;41608;45.384;20.394;2023-02-01T13:06:00;10.18;;;7.60;;
55706;SDS011;41608;45.384;20.394;2023-02-01T13:12:00;11.00;;;5.53;;
55706;SDS011;41608;45.384;20.394;2023-02-01T13:16:43;6.72;;;4.57;;
55706;SDS011;41608;45.384;20.394;2023-02-01T13:19:20;8.20;;;4.80;;
55706;SDS011;41608;45.384;20.394;2023-02-01T13:21:50;9.13;;;5.80;;
55706;SDS011;41608;45.384;20.394;2023-02-01T13:24:39;16.17;;;7.03;;
55706;SDS011;41608;45.384;20.394;2023-02-01T13:27:03;10.05;;;5.25;;
55706;SDS011;41608;45.384;20.394;2023-02-01T13:29:29;20.35;;;10.68;;
55706;SDS011;41608;45.384;20.394;2023-02-01T13:40:16;16.75;;;9.73;;
55706;SDS011;41608;45.384;20.394;2023-02-01T13:42:48;14.45;;;9.48;;
55706;SDS011;41608;45.384;20.394;2023-02-01T13:45:16;13.00;;;8.73;;
55706;SDS011;41608;45.384;20.394;2023-02-01T13:47:44;32.05;;;20.98;;
55706;SDS011;41608;45.384;20.394;2023-02-01T13:52:51;14.68;;;9.35;;
55706;SDS011;41608;45.384;20.394;2023-02-01T14:00:38;10.65;;;5.97;;
55706;SDS011;41608;45.384;20.394;2023-02-01T14:23:41;7.72;;;4.60;;
55706;SDS011;41608;45.384;20.394;2023-02-01T14:26:09;10.68;;;6.10;;
55706;SDS011;41608;45.384;20.394;2023-02-01T14:28:45;13.90;;;7.03;;
55706;SDS011;41608;45.384;20.394;2023-02-01T14:34:00;16.40;;;11.23;;
55706;SDS011;41608;45.384;20.394;2023-02-01T14:36:38;17.85;;;9.73;;
55706;SDS011;41608;45.384;20.394;2023-02-01T14:39:16;18.83;;;9.63;;
55706;SDS011;41608;45.384;20.394;2023-02-01T14:41:44;17.15;;;9.75;;
55706;SDS011;41608;45.384;20.394;2023-02-01T14:49:23;18.38;;;10.55;;
55706;SDS011;41608;45.384;20.394;2023-02-01T14:51:50;16.40;;;9.32;;
55706;SDS011;41608;45.384;20.394;2023-02-01T14:54:17;13.27;;;9.55;;
55706;SDS011;41608;45.384;20.394;2023-02-01T14:56:45;12.07;;;8.57;;
55706;SDS011;41608;45.384;20.394;2023-02-01T14:59:13;16.77;;;9.68;;
55706;SDS011;41608;45.384;20.394;2023-02-01T15:01:52;17.83;;;9.88;;
55706;SDS011;41608;45.384;20.394;2023-02-01T15:04:19;20.70;;;11.02;;
55706;SDS011;41608;45.384;20.394;2023-02-01T15:06:49;24.58;;;10.43;;
55706;SDS011;41608;45.384;20.394;2023-02-01T15:11:53;15.15;;;9.13;;
55706;SDS011;41608;45.384;20.394;2023-02-01T15:14:19;20.27;;;10.00;;
55706;SDS011;41608;45.384;20.394;2023-02-01T15:16:45;15.65;;;9.27;;
55706;SDS011;41608;45.384;20.394;2023-02-01T15:19:18;20.65;;;10.35;;
55706;SDS011;41608;45.384;20.394;2023-02-01T15:21:46;17.23;;;10.23;;
55706;SDS011;41608;45.384;20.394;2023-02-01T15:24:13;20.63;;;9.32;;
55706;SDS011;41608;45.384;20.394;2023-02-01T15:26:40;17.05;;;9.10;;
55706;SDS011;41608;45.384;20.394;2023-02-01T15:29:09;19.48;;;8.32;;
55706;SDS011;41608;45.384;20.394;2023-02-01T15:31:40;23.42;;;10.45;;
55706;SDS011;41608;45.384;20.394;2023-02-01T15:34:07;19.40;;;8.80;;
55706;SDS011;41608;45.384;20.394;2023-02-01T15:36:34;22.38;;;8.50;;
55706;SDS011;41608;45.384;20.394;2023-02-01T15:39:12;15.70;;;10.50;;
55706;SDS011;41608;45.384;20.394;2023-02-01T15:41:44;17.52;;;10.27;;
55706;SDS011;41608;45.384;20.394;2023-02-01T15:44:16;21.75;;;11.50;;
55706;SDS011;41608;45.384;20.394;2023-02-01T15:46:44;29.70;;;17.73;;
55706;SDS011;41608;45.384;20.394;2023-02-01T15:49:19;35.05;;;18.88;;
55706;SDS011;41608;45.384;20.394;2023-02-01T15:51:55;28.10;;;20.52;;
55706;SDS011;41608;45.384;20.394;2023-02-01T15:54:24;30.38;;;20.63;;
55706;SDS011;41608;45.384;20.394;2023-02-01T15:56:52;41.15;;;20.65;;
55706;SDS011;41608;45.384;20.394;2023-02-01T15:59:23;30.80;;;16.92;;
55706;SDS011;41608;45.384;20.394;2023-02-01T16:01:49;25.45;;;14.93;;
55706;SDS011;41608;45.384;20.394;2023-02-01T16:04:17;33.95;;;16.42;;
55706;SDS011;41608;45.384;20.394;2023-02-01T16:06:48;46.97;;;22.73;;
55706;SDS011;41608;45.384;20.394;2023-02-01T16:09:16;20.58;;;12.23;;
55706;SDS011;41608;45.384;20.394;2023-02-01T16:14:14;28.45;;;13.23;;
55706;SDS011;41608;45.384;20.394;2023-02-01T16:16:41;22.58;;;12.63;;
55706;SDS011;41608;45.384;20.394;2023-02-01T16:19:07;16.50;;;12.38;;
55706;SDS011;41608;45.384;20.394;2023-02-01T16:21:33;27.02;;;13.30;;
55706;SDS011;41608;45.384;20.394;2023-02-01T16:23:59;18.60;;;12.13;;
55706;SDS011;41608;45.384;20.394;2023-02-01T16:26:28;21.42;;;11.77;;
55706;SDS011;41608;45.384;20.394;2023-02-01T16:28:55;21.77;;;14.00;;
55706;SDS011;41608;45.384;20.394;2023-02-01T16:31:23;34.55;;;16.98;;
55706;SDS011;41608;45.384;20.394;2023-02-01T16:33:49;30.17;;;19.55;;
55706;SDS011;41608;45.384;20.394;2023-02-01T16:36:16;36.58;;;21.92;;
55706;SDS011;41608;45.384;20.394;2023-02-01T16:38:42;37.13;;;24.20;;
55706;SDS011;41608;45.384;20.394;2023-02-01T16:41:10;57.80;;;32.92;;
55706;SDS011;41608;45.384;20.394;2023-02-01T16:43:37;52.85;;;31.40;;
55706;SDS011;41608;45.384;20.394;2023-02-01T16:46:11;31.33;;;19.58;;
55706;SDS011;41608;45.384;20.394;2023-02-01T16:48:37;19.30;;;13.05;;
55706;SDS011;41608;45.384;20.394;2023-02-01T16:51:09;19.45;;;10.85;;
55706;SDS011;41608;45.384;20.394;2023-02-01T16:53:36;9.88;;;7.70;;
55706;SDS011;41608;45.384;20.394;2023-02-01T16:56:13;14.32;;;7.90;;
55706;SDS011;41608;45.384;20.394;2023-02-01T16:58:39;11.45;;;8.93;;
55706;SDS011;41608;45.384;20.394;2023-02-01T17:01:08;20.52;;;8.50;;
55706;SDS011;41608;45.384;20.394;2023-02-01T17:03:34;15.45;;;8.93;;
55706;SDS011;41608;45.384;20.394;2023-02-01T17:06:00;16.15;;;10.88;;
55706;SDS011;41608;45.384;20.394;2023-02-01T17:08:37;15.95;;;8.60;;